createdAt,value
2018-08-16T00:00:14.981Z,101147.70
2018-08-16T00:01:15.731Z,101147.96
2018-08-16T00:02:17.631Z,101147.26
2018-08-16T00:03:18.486Z,101146.53
2018-08-16T00:04:18.287Z,101146.69
2018-08-16T00:05:20.126Z,101146.41
2018-08-16T00:06:21.121Z,101146.80
2018-08-16T00:07:20.960Z,101146.78
2018-08-16T00:08:21.761Z,101146.46
2018-08-16T00:09:23.585Z,101146.48
2018-08-16T00:10:23.388Z,101146.23
2018-08-16T00:11:24.177Z,101146.03
2018-08-16T00:12:25.950Z,101145.71
2018-08-16T00:13:26.724Z,101145.55
2018-08-16T00:14:27.499Z,101145.39
2018-08-16T00:15:28.271Z,101145.11
2018-08-16T00:16:29.071Z,101144.77
2018-08-16T00:17:29.846Z,101145.16
2018-08-16T00:18:30.622Z,101144.27
2018-08-16T00:19:31.396Z,101144.33
2018-08-16T00:20:32.167Z,101144.20
2018-08-16T00:21:32.966Z,101144.68
2018-08-16T00:22:33.744Z,101144.90
2018-08-16T00:23:34.518Z,101144.87
2018-08-16T00:24:35.296Z,101145.34
2018-08-16T00:25:36.066Z,101145.13
2018-08-16T00:26:36.868Z,101144.58
2018-08-16T00:27:37.643Z,101144.50
2018-08-16T00:28:38.804Z,101144.50
2018-08-16T00:33:38.273Z,101143.95
2018-08-16T00:34:39.047Z,101143.56
2018-08-16T00:35:39.817Z,101143.73
2018-08-16T00:36:41.588Z,101142.80
2018-08-16T00:37:41.361Z,101143.23
2018-08-16T00:38:42.156Z,101143.61
2018-08-16T00:39:42.927Z,101143.74
2018-08-16T00:40:43.705Z,101142.98
2018-08-16T00:41:44.470Z,101143.62
2018-08-16T00:42:45.246Z,101143.08
2018-08-16T00:43:46.052Z,101142.87
2018-08-16T00:44:46.820Z,101143.00
2018-08-16T00:45:47.646Z,101142.75
2018-08-16T00:46:47.369Z,101142.50
2018-08-16T00:47:49.154Z,101142.55
2018-08-16T00:48:49.946Z,101142.34
2018-08-16T00:49:50.742Z,101142.02
2018-08-16T00:50:51.500Z,101142.28
2018-08-16T00:51:52.273Z,101142.37
2018-08-16T00:52:53.046Z,101142.23
2018-08-16T00:53:53.847Z,101142.53
2018-08-16T00:54:54.629Z,101142.92
2018-08-16T00:55:55.396Z,101143.11
2018-08-16T00:56:56.179Z,101142.70
2018-08-16T00:57:56.948Z,101143.30
2018-08-16T00:58:57.753Z,101144.03
2018-08-16T00:59:58.525Z,101143.73
2018-08-16T01:00:59.297Z,101143.78
2018-08-16T01:02:00.070Z,101143.58
2018-08-16T01:03:00.841Z,101143.19
2018-08-16T01:04:01.644Z,101143.62
2018-08-16T01:05:02.418Z,101143.71
2018-08-16T01:06:03.184Z,101143.46
2018-08-16T01:07:04.017Z,101143.58
2018-08-16T01:08:03.738Z,101143.25
2018-08-16T01:09:05.535Z,101143.28
2018-08-16T01:10:06.305Z,101143.72
2018-08-16T01:11:07.078Z,101143.81
2018-08-16T01:12:07.848Z,101144.23
2018-08-16T01:13:08.623Z,101144.53
2018-08-16T01:14:09.424Z,101144.16
2018-08-16T01:15:10.195Z,101144.37
2018-08-16T01:16:10.976Z,101144.72
2018-08-16T01:17:11.752Z,101144.75
2018-08-16T01:18:12.519Z,101144.94
2018-08-16T01:19:13.326Z,101145.31
2018-08-16T01:20:14.132Z,101145.41
2018-08-16T01:21:13.875Z,101145.51
2018-08-16T01:22:15.646Z,101145.13
2018-08-16T01:23:16.427Z,101145.00
2018-08-16T01:24:17.225Z,101144.88
2018-08-16T01:25:17.998Z,101144.76
2018-08-16T01:26:18.783Z,101145.15
2018-08-16T01:27:19.548Z,101144.64
2018-08-16T01:28:20.328Z,101145.02
2018-08-16T01:29:21.121Z,101145.16
2018-08-16T01:30:21.903Z,101145.25
2018-08-16T01:31:22.675Z,101145.48
2018-08-16T01:32:23.453Z,101145.81
2018-08-16T01:33:24.223Z,101146.13
2018-08-16T01:34:25.027Z,101146.38
2018-08-16T01:35:25.817Z,101146.34
2018-08-16T01:36:26.577Z,101146.65
2018-08-16T01:37:27.352Z,101147.04
2018-08-16T01:38:28.129Z,101147.59
2018-08-16T01:39:28.933Z,101148.14
2018-08-16T01:40:29.702Z,101148.83
2018-08-16T01:41:30.570Z,101148.96
2018-08-16T01:42:30.268Z,101148.92
2018-08-16T01:43:32.039Z,101149.09
2018-08-16T01:44:32.843Z,101148.63
2018-08-16T01:45:33.699Z,101148.46
2018-08-16T01:46:33.401Z,101148.07
2018-08-16T01:47:35.172Z,101147.98
2018-08-16T01:48:35.953Z,101147.73
2018-08-16T01:49:36.755Z,101147.09
2018-08-16T01:50:37.527Z,101147.19
2018-08-16T01:51:38.302Z,101146.55
2018-08-16T01:52:39.078Z,101145.78
2018-08-16T01:53:39.849Z,101145.71
2018-08-16T01:54:40.651Z,101145.16
2018-08-16T01:55:41.427Z,101144.95
2018-08-16T01:56:42.199Z,101144.14
2018-08-16T01:57:42.980Z,101143.16
2018-08-16T01:58:43.751Z,101142.09
2018-08-16T01:59:44.556Z,101141.20
2018-08-16T02:00:45.326Z,101140.78
2018-08-16T02:01:46.106Z,101139.77
2018-08-16T02:02:46.878Z,101139.05
2018-08-16T02:03:47.656Z,101138.66
2018-08-16T02:04:48.458Z,101138.28
2018-08-16T02:05:49.230Z,101138.02
2018-08-16T02:06:50.003Z,101137.61
2018-08-16T02:07:50.812Z,101137.22
2018-08-16T02:08:51.559Z,101136.25
2018-08-16T02:09:52.358Z,101136.20
2018-08-16T02:10:53.127Z,101135.31
2018-08-16T02:11:53.904Z,101134.80
2018-08-16T02:12:54.697Z,101134.51
2018-08-16T02:13:55.465Z,101133.61
2018-08-16T02:14:56.280Z,101132.94
2018-08-16T02:15:57.036Z,101132.38
2018-08-16T02:16:57.807Z,101132.00
2018-08-16T02:17:58.588Z,101131.19
2018-08-16T02:18:59.361Z,101130.56
2018-08-16T02:20:00.178Z,101129.84
2018-08-16T02:21:00.929Z,101128.87
2018-08-16T02:22:01.704Z,101128.91
2018-08-16T02:23:02.478Z,101128.53
2018-08-16T02:24:03.252Z,101128.06
2018-08-16T02:25:05.927Z,101127.77
2018-08-16T02:35:35.613Z,101121.55
2018-08-16T02:36:36.399Z,101121.50
2018-08-16T02:37:37.167Z,101121.50
2018-08-16T02:38:37.937Z,101121.25
2018-08-16T02:39:38.709Z,101121.00
2018-08-16T02:40:39.488Z,101121.09
2018-08-16T02:41:40.282Z,101120.79
2018-08-16T02:42:41.067Z,101120.83
2018-08-16T02:43:41.834Z,101120.48
2018-08-16T02:44:42.611Z,101119.68
2018-08-16T02:45:43.382Z,101119.27
2018-08-16T02:46:44.190Z,101118.79
2018-08-16T02:47:44.965Z,101118.23
2018-08-16T02:48:45.738Z,101117.69
2018-08-16T02:49:46.514Z,101116.92
2018-08-16T02:50:47.295Z,101116.03
2018-08-16T02:51:48.090Z,101115.14
2018-08-16T02:52:48.867Z,101114.24
2018-08-16T02:53:49.640Z,101113.78
2018-08-16T02:54:50.413Z,101113.06
2018-08-16T02:55:51.192Z,101112.52
2018-08-16T02:56:51.993Z,101111.31
2018-08-16T02:57:52.767Z,101110.67
2018-08-16T02:58:53.542Z,101110.30
2018-08-16T02:59:54.312Z,101109.66
2018-08-16T03:00:55.090Z,101109.62
2018-08-16T03:01:55.885Z,101109.03
2018-08-16T03:02:56.664Z,101108.81
2018-08-16T03:03:57.433Z,101108.17
2018-08-16T03:04:58.221Z,101107.63
2018-08-16T03:05:59.034Z,101107.41
2018-08-16T03:06:58.791Z,101106.61
2018-08-16T03:08:00.563Z,101105.88
2018-08-16T03:09:01.337Z,101105.50
2018-08-16T03:10:03.104Z,101105.30
2018-08-16T03:11:02.882Z,101104.61
2018-08-16T03:12:03.673Z,101103.61
2018-08-16T03:13:04.458Z,101103.31
2018-08-16T03:14:05.221Z,101102.45
2018-08-16T03:15:05.993Z,101101.81
2018-08-16T03:16:06.765Z,101100.93
2018-08-16T03:17:07.560Z,101100.04
2018-08-16T03:18:08.345Z,101099.78
2018-08-16T03:19:09.112Z,101099.14
2018-08-16T03:20:09.887Z,101098.16
2018-08-16T03:21:10.662Z,101097.48
2018-08-16T03:22:11.461Z,101097.19
2018-08-16T03:23:12.239Z,101096.68
2018-08-16T03:24:13.011Z,101096.20
2018-08-16T03:25:13.788Z,101095.70
2018-08-16T03:26:14.561Z,101095.23
2018-08-16T03:27:15.363Z,101094.69
2018-08-16T03:28:16.136Z,101093.88
2018-08-16T03:29:16.913Z,101093.06
2018-08-16T03:30:17.697Z,101092.69
2018-08-16T03:31:18.458Z,101092.22
2018-08-16T03:32:19.257Z,101091.75
2018-08-16T03:33:20.032Z,101091.28
2018-08-16T03:34:20.801Z,101090.98
2018-08-16T03:35:21.681Z,101090.55
2018-08-16T03:36:21.396Z,101089.92
2018-08-16T03:37:22.149Z,101090.30
2018-08-16T03:38:23.922Z,101089.66
2018-08-16T03:39:24.690Z,101089.45
2018-08-16T03:40:25.467Z,101089.38
2018-08-16T03:41:26.237Z,101088.91
2018-08-16T03:42:27.042Z,101088.44
2018-08-16T03:43:27.811Z,101087.72
2018-08-16T03:44:28.592Z,101087.92
2018-08-16T03:45:29.373Z,101087.38
2018-08-16T03:46:30.144Z,101086.61
2018-08-16T03:47:30.939Z,101086.39
2018-08-16T03:48:31.712Z,101085.59
2018-08-16T03:49:32.490Z,101085.20
2018-08-16T03:50:33.264Z,101084.66
2018-08-16T03:51:34.042Z,101083.88
2018-08-16T03:52:34.841Z,101083.98
2018-08-16T03:53:35.615Z,101083.68
2018-08-16T03:54:36.389Z,101082.95
2018-08-16T03:55:37.165Z,101082.48
2018-08-16T03:56:37.936Z,101082.09
2018-08-16T03:57:38.740Z,101081.68
2018-08-16T03:58:39.515Z,101081.63
2018-08-16T03:59:40.291Z,101080.73
2018-08-16T04:00:41.068Z,101080.83
2018-08-16T04:01:41.838Z,101080.36
2018-08-16T04:02:42.641Z,101079.52
2018-08-16T04:03:43.421Z,101079.47
2018-08-16T04:04:44.193Z,101079.84
2018-08-16T04:05:44.966Z,101079.94
2018-08-16T04:06:45.741Z,101080.14
2018-08-16T04:07:46.551Z,101080.09
2018-08-16T04:08:47.317Z,101079.89
2018-08-16T04:09:48.091Z,101079.98
2018-08-16T04:10:48.864Z,101079.59
2018-08-16T04:11:49.642Z,101078.70
2018-08-16T04:12:50.441Z,101078.31
2018-08-16T04:13:51.215Z,101078.15
2018-08-16T04:14:51.991Z,101077.59
2018-08-16T04:15:52.788Z,101077.55
2018-08-16T04:16:53.553Z,101077.84
2018-08-16T04:17:54.349Z,101078.14
2018-08-16T04:18:55.121Z,101078.61
2018-08-16T04:19:55.896Z,101078.23
2018-08-16T04:20:56.670Z,101079.12
2018-08-16T04:21:57.442Z,101078.73
2018-08-16T04:22:58.242Z,101079.12
2018-08-16T04:23:59.018Z,101079.08
2018-08-16T04:25:00.172Z,101079.49
2018-08-16T04:26:00.373Z,101079.54
2018-08-16T04:26:59.813Z,101079.97
2018-08-16T04:39:39.626Z,101088.38
2018-08-16T04:40:40.400Z,101087.79
2018-08-16T04:41:44.148Z,101087.63
2018-08-16T04:42:43.737Z,101087.06
2018-08-16T04:44:08.188Z,101083.48
2018-08-16T04:45:09.958Z,101083.06
2018-08-16T04:46:10.732Z,101083.23
2018-08-16T04:47:11.503Z,101082.84
2018-08-16T04:48:12.318Z,101083.11
2018-08-16T04:49:12.075Z,101083.02
2018-08-16T04:50:13.845Z,101082.77
2018-08-16T04:51:14.615Z,101082.55
2018-08-16T04:52:15.388Z,101082.47
2018-08-16T04:53:16.171Z,101082.81
2018-08-16T04:54:16.973Z,101082.89
2018-08-16T04:55:17.738Z,101082.69
2018-08-16T04:56:18.519Z,101082.77
2018-08-16T04:57:19.303Z,101082.52
2018-08-16T04:58:20.071Z,101082.85
2018-08-16T04:59:20.863Z,101083.11
2018-08-16T05:00:21.638Z,101082.77
2018-08-16T05:01:22.407Z,101082.50
2018-08-16T05:02:23.179Z,101082.30
2018-08-16T05:03:23.954Z,101082.09
2018-08-16T05:04:25.581Z,101082.51
2018-08-16T05:05:24.274Z,101082.81
2018-08-16T05:06:26.048Z,101082.69
2018-08-16T05:07:26.831Z,101082.56
2018-08-16T05:08:27.602Z,101082.47
2018-08-16T05:09:28.411Z,101082.52
2018-08-16T05:10:29.167Z,101082.91
2018-08-16T05:11:29.940Z,101083.06
2018-08-16T05:12:30.714Z,101083.37
2018-08-16T05:13:31.487Z,101083.67
2018-08-16T05:14:32.290Z,101083.75
2018-08-16T05:15:33.061Z,101084.14
2018-08-16T05:16:32.840Z,101084.31
2018-08-16T05:17:34.607Z,101084.98
2018-08-16T05:18:35.381Z,101085.16
2018-08-16T05:19:36.185Z,101085.58
2018-08-16T05:20:35.952Z,101086.31
2018-08-16T05:21:37.743Z,101086.34
2018-08-16T05:22:38.520Z,101086.23
2018-08-16T05:23:39.291Z,101086.39
2018-08-16T05:24:40.096Z,101086.23
2018-08-16T05:25:40.869Z,101085.67
2018-08-16T05:26:41.645Z,101085.11
2018-08-16T05:27:42.415Z,101084.72
2018-08-16T05:28:43.192Z,101084.20
2018-08-16T05:29:43.990Z,101084.45
2018-08-16T05:30:44.767Z,101084.23
2018-08-16T05:31:45.658Z,101084.34
2018-08-16T05:32:45.313Z,101084.48
2018-08-16T05:33:47.089Z,101083.94
2018-08-16T05:34:47.889Z,101084.27
2018-08-16T05:35:48.666Z,101083.60
2018-08-16T05:36:49.436Z,101083.97
2018-08-16T05:37:50.213Z,101083.59
2018-08-16T05:38:50.994Z,101083.14
2018-08-16T05:39:51.783Z,101083.62
2018-08-16T05:40:52.559Z,101083.72
2018-08-16T05:41:53.329Z,101083.42
2018-08-16T05:42:54.123Z,101083.43
2018-08-16T05:43:54.875Z,101083.17
2018-08-16T05:44:55.678Z,101083.08
2018-08-16T05:45:56.449Z,101082.64
2018-08-16T05:46:57.231Z,101082.00
2018-08-16T05:47:57.999Z,101081.73
2018-08-16T05:48:58.773Z,101080.86
2018-08-16T05:49:59.576Z,101080.45
2018-08-16T05:51:00.352Z,101079.75
2018-08-16T05:52:01.125Z,101079.17
2018-08-16T05:53:01.918Z,101078.86
2018-08-16T05:54:02.670Z,101078.34
2018-08-16T05:55:03.467Z,101077.69
2018-08-16T05:56:04.238Z,101076.56
2018-08-16T05:57:06.010Z,101075.98
2018-08-16T05:58:05.784Z,101074.68
2018-08-16T05:59:06.555Z,101073.53
2018-08-16T06:00:07.355Z,101072.60
2018-08-16T06:01:08.127Z,101072.15
2018-08-16T06:02:08.905Z,101071.66
2018-08-16T06:03:09.681Z,101070.91
2018-08-16T06:04:10.454Z,101069.80
2018-08-16T06:05:11.251Z,101069.14
2018-08-16T06:06:12.023Z,101068.39
2018-08-16T06:07:12.797Z,101067.63
2018-08-16T06:08:13.573Z,101067.03
2018-08-16T06:09:14.346Z,101066.33
2018-08-16T06:10:15.143Z,101065.13
2018-08-16T06:11:15.916Z,101064.09
2018-08-16T06:12:16.699Z,101063.71
2018-08-16T06:13:17.467Z,101062.50
2018-08-16T06:14:18.244Z,101061.23
2018-08-16T06:15:19.126Z,101059.77
2018-08-16T06:16:18.819Z,101058.95
2018-08-16T06:17:20.742Z,101057.79
2018-08-16T06:18:20.471Z,101056.66
2018-08-16T06:19:22.237Z,101055.57
2018-08-16T06:20:23.040Z,101054.42
2018-08-16T06:21:23.809Z,101053.16
2018-08-16T06:22:24.614Z,101051.92
2018-08-16T06:23:25.456Z,101050.85
2018-08-16T06:24:25.273Z,101050.11
2018-08-16T06:25:26.044Z,101049.30
2018-08-16T06:26:27.811Z,101048.84
2018-08-16T06:27:28.592Z,101047.33
2018-08-16T06:28:29.445Z,101046.58
2018-08-16T06:29:29.292Z,101045.15
2018-08-16T06:30:30.251Z,101043.90
2018-08-16T06:31:31.061Z,101042.58
2018-08-16T06:32:31.902Z,101040.67
2018-08-16T06:33:32.626Z,101039.63
2018-08-16T06:34:34.422Z,101038.00
2018-08-16T06:35:35.297Z,101036.52
2018-08-16T06:36:36.097Z,101035.20
2018-08-16T06:37:35.872Z,101034.02
2018-08-16T06:38:36.660Z,101032.87
2018-08-16T06:39:37.562Z,101031.10
2018-08-16T06:40:38.437Z,101030.06
2018-08-16T06:41:39.174Z,101029.14
2018-08-16T06:42:40.964Z,101027.92
2018-08-16T06:43:40.758Z,101025.99
2018-08-16T06:44:42.628Z,101024.78
2018-08-16T06:45:42.516Z,101023.68
2018-08-16T06:46:44.340Z,101021.80
2018-08-16T06:47:45.142Z,101020.27
2018-08-16T06:48:46.051Z,101018.77
2018-08-16T06:49:45.753Z,101017.17
2018-08-16T06:50:47.552Z,101015.91
2018-08-16T06:51:48.700Z,101014.05
2018-08-16T06:52:49.798Z,101012.53
2018-08-16T06:53:48.095Z,101011.40
2018-08-16T06:57:04.496Z,100984.59
2018-08-16T06:58:04.373Z,100984.36
2018-08-16T06:59:05.189Z,100984.08
2018-08-16T07:00:05.932Z,100984.07
2018-08-16T07:01:07.700Z,100984.18
2018-08-16T07:02:08.684Z,100984.18
2018-08-16T07:03:08.377Z,100984.35
2018-08-16T07:04:10.150Z,100983.94
2018-08-16T07:05:10.921Z,100983.91
2018-08-16T07:06:11.692Z,100983.41
2018-08-16T07:07:12.560Z,100983.42
2018-08-16T07:08:12.306Z,100982.72
2018-08-16T07:09:14.070Z,100981.77
2018-08-16T07:10:14.845Z,100981.02
2018-08-16T07:11:15.617Z,100980.06
2018-08-16T07:12:16.631Z,100979.48
2018-08-16T07:13:16.222Z,100978.11
2018-08-16T07:14:18.013Z,100976.82
2018-08-16T07:15:18.976Z,100975.27
2018-08-16T07:16:19.667Z,100974.05
2018-08-16T07:17:20.526Z,100972.70
2018-08-16T07:18:20.294Z,100971.48
2018-08-16T07:19:22.079Z,100970.83
2018-08-16T07:20:23.002Z,100969.59
2018-08-16T07:21:22.719Z,100968.55
2018-08-16T07:22:24.511Z,100966.99
2018-08-16T07:23:25.285Z,100966.63
2018-08-16T07:24:26.140Z,100966.02
2018-08-16T07:25:25.918Z,100965.25
2018-08-16T07:26:26.645Z,100964.47
2018-08-16T07:27:28.545Z,100964.48
2018-08-16T07:28:29.333Z,100963.84
2018-08-16T07:29:30.355Z,100962.66
2018-08-16T07:30:30.141Z,100962.06
2018-08-16T07:31:30.886Z,100961.53
2018-08-16T07:32:32.804Z,100960.50
2018-08-16T07:33:33.570Z,100960.32
2018-08-16T07:34:34.327Z,100958.81
2018-08-16T07:35:35.101Z,100959.16
2018-08-16T07:36:35.899Z,100958.66
2018-08-16T07:37:35.750Z,100957.66
2018-08-16T07:38:37.633Z,100957.28
2018-08-16T07:39:37.465Z,100957.42
2018-08-16T07:40:38.162Z,100957.13
2018-08-16T07:41:39.933Z,100956.31
2018-08-16T07:42:39.730Z,100955.17
2018-08-16T07:43:41.650Z,100954.59
2018-08-16T07:44:41.511Z,100954.16
2018-08-16T07:45:42.363Z,100954.08
2018-08-16T07:46:43.125Z,100953.44
2018-08-16T07:47:43.864Z,100953.05
2018-08-16T07:48:45.632Z,100952.70
2018-08-16T07:49:46.408Z,100952.50
2018-08-16T07:50:47.183Z,100952.36
2018-08-16T07:51:48.069Z,100952.16
2018-08-16T07:52:47.747Z,100952.36
2018-08-16T07:53:49.524Z,100951.95
2018-08-16T07:54:50.302Z,100952.20
2018-08-16T07:55:51.076Z,100952.20
2018-08-16T07:56:51.905Z,100952.08
2018-08-16T07:57:51.653Z,100952.01
2018-08-16T07:58:53.425Z,100951.97
2018-08-16T07:59:54.201Z,100952.48
2018-08-16T08:00:54.973Z,100952.46
2018-08-16T08:01:55.754Z,100953.31
2018-08-16T08:02:56.549Z,100953.95
2018-08-16T08:03:57.330Z,100954.34
2018-08-16T08:04:58.104Z,100954.83
2018-08-16T08:05:58.876Z,100955.31
2018-08-16T08:06:59.648Z,100955.53
2018-08-16T08:08:00.456Z,100955.53
2018-08-16T08:09:01.365Z,100956.14
2018-08-16T08:10:01.001Z,100957.19
2018-08-16T08:11:02.780Z,100957.80
2018-08-16T08:12:03.549Z,100957.94
2018-08-16T08:13:04.353Z,100958.51
2018-08-16T08:14:05.128Z,100958.94
2018-08-16T08:15:05.902Z,100959.13
2018-08-16T08:16:06.676Z,100959.48
2018-08-16T08:17:07.451Z,100959.39
2018-08-16T08:18:08.256Z,100958.98
2018-08-16T08:19:08.027Z,100958.87
2018-08-16T08:20:09.804Z,100959.09
2018-08-16T08:21:10.578Z,100958.81
2018-08-16T08:22:11.516Z,100958.78
2018-08-16T08:23:11.244Z,100958.87
2018-08-16T08:24:13.018Z,100958.90
2018-08-16T08:25:13.809Z,100959.27
2018-08-16T08:26:14.566Z,100959.50
2018-08-16T08:27:15.355Z,100960.23
2018-08-16T08:28:16.133Z,100960.17
2018-08-16T08:29:16.914Z,100960.38
2018-08-16T08:30:17.687Z,100960.55
2018-08-16T08:31:18.457Z,100960.32
2018-08-16T08:32:19.234Z,100960.65
2018-08-16T08:33:20.031Z,100960.23
2018-08-16T08:34:20.806Z,100959.96
2018-08-16T08:35:21.580Z,100959.72
2018-08-16T08:36:22.357Z,100958.84
2018-08-16T08:37:23.131Z,100958.34
2018-08-16T08:38:23.954Z,100957.33
2018-08-16T08:39:24.705Z,100956.48
2018-08-16T08:40:25.480Z,100956.05
2018-08-16T08:41:26.255Z,100955.20
2018-08-16T08:42:27.029Z,100954.91
2018-08-16T08:43:27.833Z,100954.30
2018-08-16T08:44:28.607Z,100953.66
2018-08-16T08:45:29.386Z,100952.88
2018-08-16T08:46:30.158Z,100951.70
2018-08-16T08:47:30.934Z,100951.13
2018-08-16T08:48:31.734Z,100950.07
2018-08-16T08:49:32.507Z,100948.83
2018-08-16T08:50:33.284Z,100947.95
2018-08-16T08:51:34.057Z,100947.09
2018-08-16T08:52:34.830Z,100946.63
2018-08-16T08:53:35.633Z,100945.98
2018-08-16T08:54:36.406Z,100945.92
2018-08-16T08:55:37.187Z,100945.08
2018-08-16T08:56:37.955Z,100944.37
2018-08-16T08:57:38.738Z,100943.29
2018-08-16T08:58:39.531Z,100942.80
2018-08-16T08:59:40.309Z,100942.19
2018-08-16T09:00:41.084Z,100941.50
2018-08-16T09:01:41.859Z,100940.55
2018-08-16T09:02:42.635Z,100940.13
2018-08-16T09:03:43.447Z,100939.61
2018-08-16T09:04:44.221Z,100938.05
2018-08-16T09:05:45.545Z,100937.16
2018-08-16T09:06:44.380Z,100936.39
2018-08-16T09:07:45.427Z,100935.11
2018-08-16T09:08:53.879Z,100914.94
2018-08-16T09:09:54.650Z,100914.94
2018-08-16T09:10:55.421Z,100914.72
2018-08-16T09:11:56.192Z,100914.83
2018-08-16T09:12:56.963Z,100914.58
2018-08-16T09:13:57.760Z,100914.57
2018-08-16T09:14:58.610Z,100914.35
2018-08-16T09:15:58.315Z,100913.99
2018-08-16T09:17:00.088Z,100913.98
2018-08-16T09:18:00.861Z,100913.46
2018-08-16T09:19:01.660Z,100912.87
2018-08-16T09:20:02.437Z,100912.20
2018-08-16T09:21:03.210Z,100911.50
2018-08-16T09:22:03.985Z,100910.84
2018-08-16T09:23:04.760Z,100910.63
2018-08-16T09:24:05.637Z,100910.01
2018-08-16T09:25:05.340Z,100909.42
2018-08-16T09:26:07.115Z,100908.39
2018-08-16T09:27:06.890Z,100907.30
2018-08-16T09:28:08.664Z,100906.09
2018-08-16T09:29:09.464Z,100904.92
2018-08-16T09:30:10.240Z,100903.41
2018-08-16T09:31:11.135Z,100902.16
2018-08-16T09:32:10.785Z,100900.48
2018-08-16T09:33:12.564Z,100899.55
2018-08-16T09:34:13.359Z,100898.31
2018-08-16T09:35:13.136Z,100897.07
2018-08-16T09:36:14.910Z,100896.25
2018-08-16T09:37:14.702Z,100895.22
2018-08-16T09:38:16.455Z,100894.15
2018-08-16T09:39:17.360Z,100893.09
2018-08-16T09:40:17.049Z,100891.33
2018-08-16T09:41:18.817Z,100889.77
2018-08-16T09:42:19.589Z,100888.07
2018-08-16T09:43:20.361Z,100887.14
2018-08-16T09:44:21.170Z,100886.07
2018-08-16T09:45:22.085Z,100885.03
2018-08-16T09:46:21.710Z,100883.93
2018-08-16T09:47:23.571Z,100882.78
2018-08-16T09:48:23.272Z,100881.78
2018-08-16T09:49:25.068Z,100880.64
2018-08-16T09:50:25.846Z,100880.16
2018-08-16T09:51:26.627Z,100878.95
2018-08-16T09:52:27.394Z,100877.32
2018-08-16T09:53:28.165Z,100876.41
2018-08-16T09:54:28.958Z,100875.13
2018-08-16T09:55:29.750Z,100874.06
2018-08-16T09:56:30.533Z,100872.67
2018-08-16T09:57:31.300Z,100871.45
2018-08-16T09:58:32.078Z,100870.34
2018-08-16T09:59:32.869Z,100868.85
2018-08-16T10:00:33.641Z,100867.36
2018-08-16T10:01:34.416Z,100865.62
2018-08-16T10:02:35.193Z,100864.31
2018-08-16T10:03:35.963Z,100863.17
2018-08-16T10:04:36.766Z,100862.30
2018-08-16T10:05:37.538Z,100861.51
2018-08-16T10:06:38.311Z,100860.71
2018-08-16T10:07:39.088Z,100860.09
2018-08-16T10:08:39.859Z,100859.23
2018-08-16T10:09:41.656Z,100857.45
2018-08-16T10:10:41.433Z,100856.84
2018-08-16T10:11:42.200Z,100855.77
2018-08-16T10:12:42.975Z,100854.21
2018-08-16T10:13:43.749Z,100853.27
2018-08-16T10:14:44.542Z,100852.52
2018-08-16T10:15:45.318Z,100851.03
2018-08-16T10:16:46.091Z,100850.48
2018-08-16T10:17:46.866Z,100849.05
2018-08-16T10:18:47.642Z,100848.27
2018-08-16T10:19:48.441Z,100847.08
2018-08-16T10:20:49.224Z,100845.70
2018-08-16T10:21:48.992Z,100844.63
2018-08-16T10:22:51.765Z,100843.37
2018-08-16T10:23:51.537Z,100842.62
2018-08-16T10:24:53.331Z,100841.23
2018-08-16T10:25:53.112Z,100840.05
2018-08-16T10:26:53.907Z,100839.33
2018-08-16T10:27:54.663Z,100838.08
2018-08-16T10:28:55.429Z,100837.24
2018-08-16T10:29:56.223Z,100836.34
2018-08-16T10:30:56.997Z,100834.98
2018-08-16T10:31:57.769Z,100833.98
2018-08-16T10:32:58.548Z,100832.42
2018-08-16T10:33:59.318Z,100831.45
2018-08-16T10:35:00.115Z,100830.55
2018-08-16T10:36:00.887Z,100829.25
2018-08-16T10:37:01.680Z,100827.77
2018-08-16T10:38:01.447Z,100826.61
2018-08-16T10:39:03.218Z,100824.94
2018-08-16T10:40:04.019Z,100823.48
2018-08-16T10:41:04.794Z,100822.44
2018-08-16T10:42:04.576Z,100821.13
2018-08-16T10:43:06.352Z,100819.73
2018-08-16T10:44:07.122Z,100818.72
2018-08-16T10:45:07.920Z,100817.78
2018-08-16T10:46:08.690Z,100816.25
2018-08-16T10:47:09.469Z,100815.11
2018-08-16T10:48:10.240Z,100813.89
2018-08-16T10:49:11.018Z,100813.23
2018-08-16T10:50:11.823Z,100811.90
2018-08-16T10:51:12.595Z,100810.75
2018-08-16T10:52:13.378Z,100809.32
2018-08-16T10:53:14.141Z,100807.66
2018-08-16T10:54:14.926Z,100805.63
2018-08-16T11:01:49.373Z,100805.88
2018-08-16T11:02:50.145Z,100805.45
2018-08-16T11:03:50.927Z,100805.62
2018-08-16T11:04:57.790Z,100805.46
2018-08-16T11:05:51.481Z,100805.58
2018-08-16T11:06:53.285Z,100805.88
2018-08-16T11:07:54.052Z,100804.84
2018-08-16T11:10:50.116Z,100802.75
2018-08-16T11:11:30.269Z,100803.08
2018-08-16T11:12:39.931Z,100801.09
2018-08-16T11:26:04.407Z,100793.69
2018-08-16T11:26:18.127Z,100787.06
2018-08-16T11:26:29.017Z,100785.64
2018-08-16T11:26:40.523Z,100789.98
2018-08-16T11:26:51.579Z,100778.30
2018-08-16T11:27:02.667Z,100788.69
2018-08-16T11:27:13.595Z,100788.41
2018-08-16T11:27:25.074Z,100783.66
2018-08-16T11:27:37.232Z,100785.14
2018-08-16T11:27:47.093Z,100778.63
2018-08-16T11:27:59.525Z,100780.41
2018-08-16T11:28:11.003Z,100787.73
2018-08-16T11:28:22.530Z,100776.68
2018-08-16T11:28:33.555Z,100780.23
2018-08-16T11:28:44.621Z,100781.18
2018-08-16T11:28:57.556Z,100787.05
2018-08-16T11:29:09.214Z,100779.09
2018-08-16T11:29:19.545Z,100787.33
2018-08-16T11:29:31.656Z,100785.58
2018-08-16T11:29:42.882Z,100783.77
2018-08-16T11:29:54.648Z,100779.73
2018-08-16T11:30:06.015Z,100782.64
2018-08-16T11:30:17.553Z,100786.37
2018-08-16T11:30:29.042Z,100778.25
2018-08-16T11:30:41.651Z,100783.27
2018-08-16T11:30:52.790Z,100781.34
2018-08-16T11:31:10.384Z,100783.41
2018-08-16T11:33:40.789Z,100782.92
2018-08-16T11:34:34.114Z,100778.31
2018-08-16T11:36:45.344Z,100773.73
2018-08-16T11:37:47.320Z,100773.33
2018-08-16T11:38:46.271Z,100773.16
2018-08-16T11:39:46.313Z,100772.80
2018-08-16T11:40:47.915Z,100772.38
2018-08-16T11:41:47.586Z,100771.66
2018-08-16T11:42:49.317Z,100770.65
2018-08-16T11:43:57.991Z,100760.19
2018-08-16T11:44:16.223Z,100767.00
2018-08-16T11:45:16.671Z,100766.58
2018-08-16T11:46:17.272Z,100766.66
2018-08-16T11:47:17.852Z,100765.86
2018-08-16T11:48:18.432Z,100764.87
2018-08-16T11:49:42.053Z,100755.73
2018-08-16T11:51:35.110Z,100740.18
2018-08-16T11:52:36.651Z,100740.70
2018-08-16T11:53:36.872Z,100741.56
2018-08-16T11:54:37.149Z,100742.42
2018-08-16T11:55:37.672Z,100742.88
2018-08-16T11:56:37.836Z,100743.15
2018-08-16T11:57:38.195Z,100743.45
2018-08-16T12:15:49.072Z,100719.56
2018-08-16T12:16:58.666Z,100719.01
2018-08-16T12:17:50.378Z,100719.22
2018-08-16T12:18:49.665Z,100719.22
2018-08-16T12:19:53.893Z,100719.36
2018-08-16T12:20:53.959Z,100719.95